Time;durP1;ratioP1;P1;durP2;ratioP2;P2;SDS_P1;SDS_P2;PMS_P1;PMS_P2;Temp;Humidity;BMP_temperature;BMP_pressure;BME280_temperature;BME280_humidity;BME280_pressure;Samples;Min_cycle;Max_cycle;Signal;HPM_P1;HPM_P2
2023/08/23 00:02:23;;;;;;;9.13;7.50;;;;;;;;;;5098875;28;20567;-65
2023/08/23 00:04:50;;;;;;;9.10;8.20;;;;;;;;;;5099763;28;20501;-65
2023/08/23 00:07:16;;;;;;;13.93;6.87;;;;;;;;;;5110886;28;20443;-65
2023/08/23 00:09:43;;;;;;;7.97;7.17;;;;;;;;;;5109309;28;20458;-65
2023/08/23 00:12:11;;;;;;;9.40;8.30;;;;;;;;;;5098874;28;20489;-65
2023/08/23 00:14:37;;;;;;;9.70;8.20;;;;;;;;;;5099101;28;20447;-65
2023/08/23 00:17:03;;;;;;;9.97;9.00;;;;;;;;;;5099481;28;21126;-65
2023/08/23 00:19:30;;;;;;;11.43;9.13;;;;;;;;;;5100521;28;20458;-65
2023/08/23 00:21:56;;;;;;;8.80;7.87;;;;;;;;;;5099165;28;20469;-65
2023/08/23 00:24:23;;;;;;;11.90;8.20;;;;;;;;;;5100389;28;20520;-65
2023/08/23 00:26:49;;;;;;;10.60;9.50;;;;;;;;;;5099104;28;20493;-65
2023/08/23 00:29:17;;;;;;;10.50;8.93;;;;;;;;;;5098670;28;20511;-64
2023/08/23 00:31:43;;;;;;;11.03;8.90;;;;;;;;;;5102549;28;21037;-65
2023/08/23 00:34:10;;;;;;;9.27;8.47;;;;;;;;;;5102562;28;20523;-65
2023/08/23 00:36:36;;;;;;;10.03;7.83;;;;;;;;;;5102043;28;20455;-65
2023/08/23 00:39:03;;;;;;;8.43;7.63;;;;;;;;;;5103046;28;20454;-65
2023/08/23 00:41:29;;;;;;;9.00;6.70;;;;;;;;;;5103614;28;20461;-66
2023/08/23 00:43:55;;;;;;;8.30;6.50;;;;;;;;;;5102581;28;20473;-66
2023/08/23 00:46:24;;;;;;;7.30;6.70;;;;;;;;;;5103118;28;20477;-65
2023/08/23 00:48:51;;;;;;;9.20;8.30;;;;;;;;;;5102294;28;20459;-66
2023/08/23 00:51:17;;;;;;;9.93;8.57;;;;;;;;;;5102823;28;20518;-66
2023/08/23 00:53:44;;;;;;;8.80;7.90;;;;;;;;;;5102964;28;20522;-66
2023/08/23 00:56:11;;;;;;;8.87;8.10;;;;;;;;;;5103909;28;20466;-66
2023/08/23 00:58:38;;;;;;;10.37;7.70;;;;;;;;;;5102584;28;20502;-65
2023/08/23 01:01:04;;;;;;;9.60;8.10;;;;;;;;;;5110488;28;20596;-66
2023/08/23 01:03:32;;;;;;;10.40;8.83;;;;;;;;;;5101873;28;20513;-65
2023/08/23 01:06:04;;;;;;;9.93;8.20;;;;;;;;;;5102072;28;20526;-66
2023/08/23 01:08:35;;;;;;;8.50;7.70;;;;;;;;;;5102833;28;20471;-65
2023/08/23 01:11:06;;;;;;;10.60;8.10;;;;;;;;;;5101250;28;20511;-65
2023/08/23 01:13:34;;;;;;;9.30;7.30;;;;;;;;;;5101825;28;20459;-65
2023/08/23 01:16:01;;;;;;;10.57;8.50;;;;;;;;;;5091464;28;20475;-65
2023/08/23 01:18:28;;;;;;;9.07;8.03;;;;;;;;;;5101742;28;21045;-65
2023/08/23 01:20:56;;;;;;;9.43;8.43;;;;;;;;;;5102336;28;20501;-65
2023/08/23 01:23:24;;;;;;;9.03;7.47;;;;;;;;;;5102390;28;20443;-65
2023/08/23 01:25:51;;;;;;;11.10;8.60;;;;;;;;;;5106306;28;20487;-65
2023/08/23 01:28:18;;;;;;;10.60;8.67;;;;;;;;;;5102238;28;21055;-65
2023/08/23 01:30:44;;;;;;;7.93;7.23;;;;;;;;;;5101784;28;20578;-65
2023/08/23 01:33:13;;;;;;;10.37;8.70;;;;;;;;;;5101498;28;20491;-65
2023/08/23 01:35:43;;;;;;;13.43;8.57;;;;;;;;;;5103866;28;20854;-65
2023/08/23 01:38:09;;;;;;;9.20;8.20;;;;;;;;;;5103158;28;20526;-65
2023/08/23 01:40:37;;;;;;;10.57;9.67;;;;;;;;;;5105206;28;20543;-65
2023/08/23 01:43:04;;;;;;;10.40;9.40;;;;;;;;;;5098885;28;20471;-65
2023/08/23 01:45:30;;;;;;;12.57;9.97;;;;;;;;;;5101443;28;20466;-65
2023/08/23 01:47:56;;;;;;;12.73;10.13;;;;;;;;;;5101518;28;20519;-65
2023/08/23 01:50:23;;;;;;;9.83;8.90;;;;;;;;;;5101945;28;20502;-65
2023/08/23 01:52:49;;;;;;;10.47;9.40;;;;;;;;;;5101717;28;20998;-65
2023/08/23 01:55:17;;;;;;;10.57;9.60;;;;;;;;;;5109650;28;20482;-65
2023/08/23 01:57:45;;;;;;;11.60;9.37;;;;;;;;;;5101099;28;20457;-65
2023/08/23 02:00:12;;;;;;;11.87;9.47;;;;;;;;;;5101893;28;20463;-65
2023/08/23 02:02:38;;;;;;;10.00;9.10;;;;;;;;;;5104593;28;20445;-65
2023/08/23 02:05:05;;;;;;;10.33;9.10;;;;;;;;;;5104546;28;20534;-65
2023/08/23 02:07:31;;;;;;;10.27;9.27;;;;;;;;;;5101914;28;20458;-65
2023/08/23 02:09:58;;;;;;;11.30;9.07;;;;;;;;;;5101211;28;20514;-65
2023/08/23 02:12:24;;;;;;;12.33;8.70;;;;;;;;;;5109046;28;20482;-65
2023/08/23 02:14:52;;;;;;;9.00;8.10;;;;;;;;;;5101377;28;20577;-65
2023/08/23 02:17:18;;;;;;;9.67;8.10;;;;;;;;;;5101376;28;20486;-65
2023/08/23 02:19:45;;;;;;;10.63;7.63;;;;;;;;;;5101066;28;20482;-65
2023/08/23 02:22:11;;;;;;;7.67;6.90;;;;;;;;;;5100085;28;20455;-66
2023/08/23 02:24:37;;;;;;;6.70;6.00;;;;;;;;;;5101561;28;20450;-65
2023/08/23 02:27:04;;;;;;;7.60;6.90;;;;;;;;;;5101309;28;20471;-65
2023/08/23 02:29:30;;;;;;;7.50;6.43;;;;;;;;;;5100260;28;20926;-65
2023/08/23 02:31:58;;;;;;;7.20;6.50;;;;;;;;;;5100701;28;20546;-66
2023/08/23 02:34:24;;;;;;;6.60;5.90;;;;;;;;;;5088702;28;20546;-66
2023/08/23 02:36:50;;;;;;;6.70;6.10;;;;;;;;;;5100556;28;20486;-66
2023/08/23 02:39:17;;;;;;;7.87;6.90;;;;;;;;;;5101144;28;20665;-66
2023/08/23 02:41:43;;;;;;;9.70;6.13;;;;;;;;;;5107079;28;20543;-66
2023/08/23 02:44:10;;;;;;;7.70;6.53;;;;;;;;;;5088105;28;20526;-66
2023/08/23 02:46:36;;;;;;;8.30;6.90;;;;;;;;;;5100775;28;20514;-66
2023/08/23 02:49:04;;;;;;;7.60;6.50;;;;;;;;;;5100503;28;20570;-66
2023/08/23 02:51:30;;;;;;;7.13;6.17;;;;;;;;;;5101712;28;21054;-66
2023/08/23 02:53:57;;;;;;;8.20;6.83;;;;;;;;;;5100488;28;20474;-66
2023/08/23 02:56:23;;;;;;;8.03;7.03;;;;;;;;;;5100653;28;20502;-66
2023/08/23 02:58:49;;;;;;;7.93;7.23;;;;;;;;;;5103643;28;21205;-65
2023/08/23 03:01:16;;;;;;;8.17;7.37;;;;;;;;;;5102999;28;20518;-65
2023/08/23 03:03:42;;;;;;;8.70;7.83;;;;;;;;;;5100224;28;20944;-65
2023/08/23 03:06:10;;;;;;;7.97;7.23;;;;;;;;;;5100687;28;20455;-65
2023/08/23 03:08:36;;;;;;;7.77;7.17;;;;;;;;;;5107144;28;20487;-65
2023/08/23 03:11:04;;;;;;;8.93;8.00;;;;;;;;;;5099932;28;20519;-65
2023/08/23 03:13:30;;;;;;;7.93;7.00;;;;;;;;;;5099909;28;20450;-65
2023/08/23 03:15:56;;;;;;;7.90;7.10;;;;;;;;;;5099990;28;20533;-65
2023/08/23 03:18:23;;;;;;;7.33;6.57;;;;;;;;;;5093003;28;20482;-65
2023/08/23 03:20:49;;;;;;;8.00;7.20;;;;;;;;;;5099973;28;20486;-65
2023/08/23 03:23:17;;;;;;;9.37;7.60;;;;;;;;;;5102855;28;20518;-65
2023/08/23 03:25:44;;;;;;;13.67;7.57;;;;;;;;;;5100525;28;20534;-65
2023/08/23 03:28:11;;;;;;;12.10;6.83;;;;;;;;;;5100127;28;20502;-66
2023/08/23 03:30:37;;;;;;;9.30;6.80;;;;;;;;;;5098511;28;20462;-65
2023/08/23 03:33:05;;;;;;;7.70;7.00;;;;;;;;;;5098601;28;20597;-65
2023/08/23 03:35:31;;;;;;;7.77;6.90;;;;;;;;;;5099786;28;20523;-65
2023/08/23 03:37:57;;;;;;;7.43;6.73;;;;;;;;;;5102230;28;20518;-65
2023/08/23 03:40:25;;;;;;;8.30;7.07;;;;;;;;;;5098990;28;20475;-65
2023/08/23 03:42:52;;;;;;;10.23;6.60;;;;;;;;;;5099469;28;20513;-65
2023/08/23 03:45:18;;;;;;;7.17;6.47;;;;;;;;;;5099194;28;20471;-65
2023/08/23 03:47:45;;;;;;;7.30;6.60;;;;;;;;;;5099298;28;20463;-65
2023/08/23 03:50:11;;;;;;;8.57;6.57;;;;;;;;;;5099610;28;20463;-65
2023/08/23 03:52:38;;;;;;;8.47;6.63;;;;;;;;;;5099388;28;20535;-69
2023/08/23 03:55:04;;;;;;;7.30;6.60;;;;;;;;;;5105691;28;20481;-69
2023/08/23 03:57:32;;;;;;;9.93;6.50;;;;;;;;;;5102298;28;21041;-70
2023/08/23 03:59:59;;;;;;;7.27;6.67;;;;;;;;;;5105672;28;20475;-69
2023/08/23 04:02:25;;;;;;;7.80;5.97;;;;;;;;;;5099033;28;20491;-70
2023/08/23 04:04:52;;;;;;;11.60;7.00;;;;;;;;;;5102824;28;20995;-70
2023/08/23 04:07:18;;;;;;;7.93;6.43;;;;;;;;;;5103849;28;20450;-70
2023/08/23 04:09:44;;;;;;;7.03;6.33;;;;;;;;;;5102907;28;20471;-69
2023/08/23 04:12:11;;;;;;;7.03;6.33;;;;;;;;;;5102330;28;20593;-69
2023/08/23 04:14:39;;;;;;;7.33;5.60;;;;;;;;;;5103372;28;20443;-69
2023/08/23 04:17:05;;;;;;;7.23;6.53;;;;;;;;;;5103135;28;20459;-69
2023/08/23 04:19:31;;;;;;;7.23;6.13;;;;;;;;;;5103179;28;20538;-69
2023/08/23 04:21:58;;;;;;;6.30;5.80;;;;;;;;;;5102428;28;20518;-69
2023/08/23 04:24:24;;;;;;;6.70;6.00;;;;;;;;;;5103279;28;20465;-69
2023/08/23 04:26:50;;;;;;;8.13;5.93;;;;;;;;;;5100585;28;20454;-70
2023/08/23 04:29:17;;;;;;;7.47;6.63;;;;;;;;;;5102129;28;20566;-69
2023/08/23 04:31:45;;;;;;;6.23;5.73;;;;;;;;;;5103085;28;20546;-69
2023/08/23 04:34:11;;;;;;;5.90;5.40;;;;;;;;;;5102114;28;20506;-69
2023/08/23 04:36:38;;;;;;;8.80;6.60;;;;;;;;;;5103053;28;20512;-68
2023/08/23 04:39:04;;;;;;;6.57;5.60;;;;;;;;;;5103266;28;20443;-68
2023/08/23 04:41:30;;;;;;;6.90;6.20;;;;;;;;;;5103131;28;20837;-68
2023/08/23 04:43:57;;;;;;;8.53;7.10;;;;;;;;;;5101803;28;20629;-68
2023/08/23 04:46:23;;;;;;;7.20;6.60;;;;;;;;;;5102948;28;20787;-68
2023/08/23 04:48:51;;;;;;;7.03;6.23;;;;;;;;;;5105390;28;20485;-69
2023/08/23 04:51:17;;;;;;;9.47;6.43;;;;;;;;;;5102935;28;20477;-69
2023/08/23 04:53:44;;;;;;;8.17;6.40;;;;;;;;;;5102701;28;20478;-69
2023/08/23 04:56:10;;;;;;;7.13;6.43;;;;;;;;;;5105080;28;20526;-68
2023/08/23 04:58:36;;;;;;;5.83;5.20;;;;;;;;;;5100050;28;20539;-68
2023/08/23 05:01:04;;;;;;;7.03;5.53;;;;;;;;;;5102549;28;20494;-69
2023/08/23 05:03:30;;;;;;;6.73;5.97;;;;;;;;;;5104381;28;20572;-69
2023/08/23 05:05:58;;;;;;;9.70;6.30;;;;;;;;;;5101753;28;20486;-68
2023/08/23 05:08:24;;;;;;;7.27;6.53;;;;;;;;;;5115031;28;20539;-69
2023/08/23 05:10:54;;;;;;;8.53;7.30;;;;;;;;;;5111726;28;20804;-65
2023/08/23 05:13:20;;;;;;;7.43;6.73;;;;;;;;;;5107300;28;21070;-65
2023/08/23 05:15:51;;;;;;;6.97;6.33;;;;;;;;;;5106746;28;20542;-65
2023/08/23 05:18:17;;;;;;;6.73;6.10;;;;;;;;;;5099877;28;20470;-66
2023/08/23 05:20:44;;;;;;;7.03;6.43;;;;;;;;;;5098482;28;20479;-65
2023/08/23 05:23:11;;;;;;;7.10;6.40;;;;;;;;;;5101817;28;20474;-65
2023/08/23 05:25:38;;;;;;;12.87;6.90;;;;;;;;;;5098284;28;21094;-65
2023/08/23 05:28:04;;;;;;;9.23;7.13;;;;;;;;;;5100363;28;20549;-66
2023/08/23 05:30:32;;;;;;;9.90;7.30;;;;;;;;;;5102441;28;20466;-66
2023/08/23 05:32:58;;;;;;;8.80;6.77;;;;;;;;;;5098329;28;20490;-69
2023/08/23 05:35:25;;;;;;;7.83;6.97;;;;;;;;;;5097653;28;20502;-70
2023/08/23 05:37:51;;;;;;;10.73;6.57;;;;;;;;;;5098027;28;20993;-70
2023/08/23 05:40:19;;;;;;;7.50;6.80;;;;;;;;;;5100897;28;20467;-70
2023/08/23 05:42:45;;;;;;;8.83;7.00;;;;;;;;;;5100343;28;20527;-70
2023/08/23 05:45:12;;;;;;;9.53;8.43;;;;;;;;;;5103693;28;20460;-69
2023/08/23 05:47:38;;;;;;;11.17;7.83;;;;;;;;;;5100562;28;20505;-70
2023/08/23 05:50:05;;;;;;;7.80;7.00;;;;;;;;;;5100668;28;20549;-71
2023/08/23 05:52:31;;;;;;;8.93;8.13;;;;;;;;;;5101443;28;20483;-70
2023/08/23 05:54:57;;;;;;;10.50;6.73;;;;;;;;;;5099385;28;20478;-70
2023/08/23 05:57:25;;;;;;;7.67;6.90;;;;;;;;;;5099961;28;20462;-70
2023/08/23 05:59:51;;;;;;;7.83;7.23;;;;;;;;;;5098256;28;20745;-70
2023/08/23 06:02:17;;;;;;;9.17;8.33;;;;;;;;;;5100304;28;20477;-70
2023/08/23 06:04:45;;;;;;;8.27;7.47;;;;;;;;;;5100491;28;20574;-70
2023/08/23 06:07:11;;;;;;;8.30;7.57;;;;;;;;;;5105738;28;20908;-70
2023/08/23 06:09:38;;;;;;;8.17;7.30;;;;;;;;;;5099959;28;20519;-70
2023/08/23 06:12:05;;;;;;;9.10;8.20;;;;;;;;;;5099336;28;20546;-71
2023/08/23 06:14:32;;;;;;;8.73;7.80;;;;;;;;;;5099589;28;20479;-70
2023/08/23 06:16:59;;;;;;;8.87;7.97;;;;;;;;;;5105632;28;21102;-69
2023/08/23 06:19:25;;;;;;;11.20;8.90;;;;;;;;;;5090616;28;20515;-70
2023/08/23 06:21:52;;;;;;;11.73;10.67;;;;;;;;;;5099018;28;20550;-69
2023/08/23 06:24:18;;;;;;;11.93;10.23;;;;;;;;;;5099305;28;20466;-70
2023/08/23 06:26:46;;;;;;;11.93;10.73;;;;;;;;;;5100463;28;20919;-71
2023/08/23 06:29:13;;;;;;;11.80;10.63;;;;;;;;;;5099792;28;20486;-70
2023/08/23 06:31:41;;;;;;;12.27;11.27;;;;;;;;;;5099564;28;20482;-71
2023/08/23 06:34:07;;;;;;;11.43;10.33;;;;;;;;;;5102813;28;20503;-70
2023/08/23 06:36:34;;;;;;;11.83;10.83;;;;;;;;;;5097883;28;20462;-70
2023/08/23 06:39:00;;;;;;;10.33;9.47;;;;;;;;;;5098876;28;20539;-71
2023/08/23 06:41:26;;;;;;;12.63;11.40;;;;;;;;;;5099675;28;20971;-70
2023/08/23 06:43:59;;;;;;;12.23;11.10;;;;;;;;;;5098878;28;20475;-70
2023/08/23 06:46:25;;;;;;;11.97;10.67;;;;;;;;;;5101453;28;20459;-71
2023/08/23 06:48:53;;;;;;;13.67;12.40;;;;;;;;;;5099055;28;20486;-71
2023/08/23 06:51:20;;;;;;;13.50;12.30;;;;;;;;;;5098550;28;20978;-70
2023/08/23 06:53:47;;;;;;;15.27;13.80;;;;;;;;;;5098893;28;20471;-71
2023/08/23 06:56:14;;;;;;;15.40;13.97;;;;;;;;;;5099028;28;20486;-71
2023/08/23 06:58:40;;;;;;;13.80;12.60;;;;;;;;;;5097858;28;20519;-71
2023/08/23 07:01:09;;;;;;;14.30;13.00;;;;;;;;;;5098401;28;20480;-71
2023/08/23 07:03:35;;;;;;;15.50;14.20;;;;;;;;;;5106885;28;20459;-70
2023/08/23 07:06:04;;;;;;;13.80;12.60;;;;;;;;;;5101224;28;20473;-72
2023/08/23 07:08:30;;;;;;;14.17;12.87;;;;;;;;;;5098610;28;20479;-71
2023/08/23 07:10:56;;;;;;;14.07;12.67;;;;;;;;;;5097976;28;20455;-72
2023/08/23 07:13:23;;;;;;;15.60;14.40;;;;;;;;;;5110174;28;20561;-72
2023/08/23 07:15:50;;;;;;;15.97;14.43;;;;;;;;;;5096553;28;20451;-72
2023/08/23 07:18:16;;;;;;;15.30;13.80;;;;;;;;;;5103724;28;20454;-70
2023/08/23 07:20:43;;;;;;;15.23;13.77;;;;;;;;;;5100788;28;20979;-71
2023/08/23 07:23:10;;;;;;;14.73;13.43;;;;;;;;;;5098371;28;20470;-72
2023/08/23 07:25:37;;;;;;;13.83;12.63;;;;;;;;;;5100177;28;20583;-71
2023/08/23 07:28:04;;;;;;;14.93;13.47;;;;;;;;;;5097717;28;21112;-71
2023/08/23 07:30:31;;;;;;;14.83;13.33;;;;;;;;;;5106273;28;20850;-71
2023/08/23 07:32:57;;;;;;;14.90;13.40;;;;;;;;;;5103467;28;20989;-72
2023/08/23 07:35:23;;;;;;;12.20;11.10;;;;;;;;;;5100497;28;20467;-72
2023/08/23 07:37:50;;;;;;;13.63;12.50;;;;;;;;;;5098503;28;20459;-72
2023/08/23 07:40:17;;;;;;;13.77;11.83;;;;;;;;;;5100534;28;20478;-71
2023/08/23 07:42:44;;;;;;;11.27;10.27;;;;;;;;;;5101968;28;20486;-71
2023/08/23 07:45:10;;;;;;;11.20;10.30;;;;;;;;;;5098563;28;20482;-71
2023/08/23 07:47:37;;;;;;;11.07;10.07;;;;;;;;;;5099816;28;20513;-72
2023/08/23 07:50:04;;;;;;;11.03;9.60;;;;;;;;;;5099130;28;20931;-72
2023/08/23 07:52:31;;;;;;;10.40;9.43;;;;;;;;;;5103371;28;20522;-71
2023/08/23 07:54:57;;;;;;;8.83;7.87;;;;;;;;;;5098121;28;20482;-72
2023/08/23 07:57:25;;;;;;;9.70;8.70;;;;;;;;;;5097959;28;20479;-72
2023/08/23 07:59:52;;;;;;;10.23;9.23;;;;;;;;;;5091926;28;20560;-71
2023/08/23 08:02:18;;;;;;;8.70;7.90;;;;;;;;;;5099034;28;20462;-72
2023/08/23 08:04:46;;;;;;;9.07;8.13;;;;;;;;;;5097024;28;20486;-72
2023/08/23 08:07:13;;;;;;;9.50;8.50;;;;;;;;;;5097945;28;20976;-72
2023/08/23 08:09:39;;;;;;;10.17;9.10;;;;;;;;;;5098551;28;20935;-72
2023/08/23 08:12:06;;;;;;;9.67;8.77;;;;;;;;;;5091941;28;20998;-72
2023/08/23 08:14:34;;;;;;;9.77;8.90;;;;;;;;;;5104331;28;20557;-72
2023/08/23 08:17:00;;;;;;;9.77;8.87;;;;;;;;;;5098273;28;20447;-72
2023/08/23 08:19:26;;;;;;;10.13;8.60;;;;;;;;;;5099276;28;20526;-71
2023/08/23 08:21:54;;;;;;;11.13;9.20;;;;;;;;;;5098625;28;20522;-72
2023/08/23 08:24:20;;;;;;;9.60;8.60;;;;;;;;;;5099783;28;20443;-71
2023/08/23 08:26:46;;;;;;;10.57;9.10;;;;;;;;;;5097436;28;21147;-71
2023/08/23 08:29:13;;;;;;;10.17;9.20;;;;;;;;;;5097774;28;20544;-71
2023/08/23 08:31:41;;;;;;;10.20;9.20;;;;;;;;;;5097464;28;21008;-71
2023/08/23 08:34:08;;;;;;;11.20;10.10;;;;;;;;;;5096905;28;20570;-72
2023/08/23 08:36:34;;;;;;;10.87;9.80;;;;;;;;;;5104890;28;20463;-72
2023/08/23 08:39:00;;;;;;;12.80;11.00;;;;;;;;;;5098134;28;20479;-71
2023/08/23 08:41:27;;;;;;;11.90;10.67;;;;;;;;;;5097196;28;20459;-72
2023/08/23 08:43:53;;;;;;;9.93;8.93;;;;;;;;;;5098003;28;20455;-72
2023/08/23 08:46:20;;;;;;;9.83;9.00;;;;;;;;;;5097905;28;20945;-72
2023/08/23 08:48:48;;;;;;;10.43;8.90;;;;;;;;;;5090136;28;20459;-72
2023/08/23 08:51:19;;;;;;;13.00;10.00;;;;;;;;;;5078600;28;20493;-72
2023/08/23 08:53:48;;;;;;;11.67;10.47;;;;;;;;;;5075852;28;20596;-73
2023/08/23 08:56:14;;;;;;;10.70;9.60;;;;;;;;;;5079518;28;20535;-72
2023/08/23 08:58:41;;;;;;;11.10;8.77;;;;;;;;;;5080652;28;20456;-72
2023/08/23 09:01:08;;;;;;;10.07;9.17;;;;;;;;;;5080601;28;20448;-71
2023/08/23 09:03:35;;;;;;;8.83;8.03;;;;;;;;;;5079847;28;20467;-73
2023/08/23 09:06:03;;;;;;;11.50;9.30;;;;;;;;;;5083077;28;20464;-72
2023/08/23 09:08:29;;;;;;;10.03;9.03;;;;;;;;;;5078827;28;20854;-73
2023/08/23 09:10:55;;;;;;;9.77;8.20;;;;;;;;;;5080107;28;20452;-72
2023/08/23 09:13:22;;;;;;;9.10;8.20;;;;;;;;;;5078641;28;20522;-73
2023/08/23 09:15:48;;;;;;;8.93;7.43;;;;;;;;;;5080301;28;20452;-72
2023/08/23 09:18:18;;;;;;;9.77;8.77;;;;;;;;;;5082254;28;20464;-72
2023/08/23 09:20:45;;;;;;;8.87;7.60;;;;;;;;;;5079729;28;20451;-72
2023/08/23 09:23:13;;;;;;;9.00;8.10;;;;;;;;;;5073596;28;20436;-72
2023/08/23 09:25:39;;;;;;;8.80;7.27;;;;;;;;;;5084774;28;20495;-72
2023/08/23 09:28:11;;;;;;;6.60;5.93;;;;;;;;;;5076398;28;20480;-72
2023/08/23 09:30:37;;;;;;;7.03;5.70;;;;;;;;;;5060467;28;20504;-72
2023/08/23 09:33:04;;;;;;;7.00;5.87;;;;;;;;;;5058762;28;20982;-72
2023/08/23 09:35:30;;;;;;;8.80;6.63;;;;;;;;;;5056353;28;20484;-71
2023/08/23 09:37:57;;;;;;;7.60;6.73;;;;;;;;;;5059986;28;20525;-72
2023/08/23 09:40:26;;;;;;;7.50;6.70;;;;;;;;;;5058933;28;20604;-72
2023/08/23 09:42:53;;;;;;;6.30;5.60;;;;;;;;;;5068167;28;20498;-72
2023/08/23 09:45:20;;;;;;;6.70;5.97;;;;;;;;;;5060492;28;21127;-72
2023/08/23 09:47:51;;;;;;;9.60;6.37;;;;;;;;;;5059090;28;20467;-72
2023/08/23 09:50:18;;;;;;;6.77;6.17;;;;;;;;;;5058946;28;20467;-72
2023/08/23 09:52:45;;;;;;;7.83;6.50;;;;;;;;;;5059839;28;20965;-72
2023/08/23 09:55:12;;;;;;;8.37;6.70;;;;;;;;;;5059884;28;20479;-72
2023/08/23 09:57:41;;;;;;;7.33;6.63;;;;;;;;;;5059424;28;20625;-72
2023/08/23 10:00:08;;;;;;;9.50;6.13;;;;;;;;;;5047722;28;20448;-71
2023/08/23 10:02:34;;;;;;;6.20;5.30;;;;;;;;;;5047627;28;20458;-72
2023/08/23 10:05:01;;;;;;;7.90;6.17;;;;;;;;;;5050228;28;20486;-72
2023/08/23 10:07:28;;;;;;;8.20;7.13;;;;;;;;;;5056690;28;20507;-72
2023/08/23 10:09:54;;;;;;;9.97;5.80;;;;;;;;;;5052252;28;20454;-73
2023/08/23 10:12:21;;;;;;;6.50;5.90;;;;;;;;;;5055745;28;20467;-73
2023/08/23 10:14:50;;;;;;;6.63;5.93;;;;;;;;;;5056115;28;20536;-73
2023/08/23 10:17:19;;;;;;;6.03;5.33;;;;;;;;;;5055146;28;20473;-73
2023/08/23 10:19:47;;;;;;;6.93;6.30;;;;;;;;;;5054107;28;20487;-72
2023/08/23 10:22:14;;;;;;;6.80;6.10;;;;;;;;;;5053687;28;20465;-74
2023/08/23 10:24:40;;;;;;;6.37;5.77;;;;;;;;;;5057600;28;20508;-73
2023/08/23 10:27:07;;;;;;;7.67;5.57;;;;;;;;;;5057394;28;20892;-74
2023/08/23 10:29:34;;;;;;;6.53;5.30;;;;;;;;;;5053733;28;20460;-73
2023/08/23 10:32:06;;;;;;;5.80;5.20;;;;;;;;;;5058269;28;20547;-73
2023/08/23 10:34:35;;;;;;;5.27;4.77;;;;;;;;;;5064081;28;20524;-73
2023/08/23 10:37:01;;;;;;;7.00;6.27;;;;;;;;;;5058423;28;20453;-73
2023/08/23 10:39:28;;;;;;;5.83;5.23;;;;;;;;;;5058590;28;20476;-73
2023/08/23 10:41:54;;;;;;;7.67;4.83;;;;;;;;;;5069235;28;20528;-73
2023/08/23 10:44:22;;;;;;;7.60;4.77;;;;;;;;;;5059829;28;20460;-70
2023/08/23 10:46:50;;;;;;;5.37;4.60;;;;;;;;;;5058103;28;20492;-72
2023/08/23 10:49:20;;;;;;;5.07;4.60;;;;;;;;;;5061740;28;20562;-72
2023/08/23 10:51:46;;;;;;;7.53;4.07;;;;;;;;;;5062441;28;20464;-72
2023/08/23 10:54:13;;;;;;;6.90;4.70;;;;;;;;;;5064531;28;20477;-73
2023/08/23 10:56:40;;;;;;;4.93;4.50;;;;;;;;;;5060440;28;20464;-73
2023/08/23 10:59:07;;;;;;;5.13;4.67;;;;;;;;;;5057849;28;20449;-73
2023/08/23 11:01:34;;;;;;;6.77;4.53;;;;;;;;;;5058261;28;21023;-72
2023/08/23 11:04:02;;;;;;;3.93;3.50;;;;;;;;;;5058250;28;20496;-73
2023/08/23 11:06:30;;;;;;;5.90;4.37;;;;;;;;;;5058956;28;20449;-72
2023/08/23 11:08:57;;;;;;;3.97;3.60;;;;;;;;;;5051281;28;20471;-72
2023/08/23 11:11:27;;;;;;;3.93;3.40;;;;;;;;;;5070457;28;20480;-72
2023/08/23 11:13:53;;;;;;;4.17;3.80;;;;;;;;;;5057917;28;20475;-72
2023/08/23 11:16:20;;;;;;;4.00;3.17;;;;;;;;;;5058776;28;20485;-72
2023/08/23 11:18:46;;;;;;;4.10;3.70;;;;;;;;;;5058984;28;20467;-72
2023/08/23 11:21:13;;;;;;;5.07;4.20;;;;;;;;;;5062227;28;20523;-73
2023/08/23 11:23:40;;;;;;;4.50;4.10;;;;;;;;;;5068301;28;20488;-72
2023/08/23 11:26:07;;;;;;;4.67;3.73;;;;;;;;;;5053082;28;20568;-73
2023/08/23 11:28:33;;;;;;;3.30;3.00;;;;;;;;;;5066189;28;20491;-72
2023/08/23 11:31:06;;;;;;;3.93;3.27;;;;;;;;;;5069493;28;20452;-73
2023/08/23 11:33:32;;;;;;;4.63;3.93;;;;;;;;;;5076529;28;20473;-72
2023/08/23 11:35:59;;;;;;;3.77;3.33;;;;;;;;;;5081806;28;20490;-73
2023/08/23 11:38:28;;;;;;;6.97;4.63;;;;;;;;;;5070776;28;20474;-72
2023/08/23 11:40:57;;;;;;;5.10;4.20;;;;;;;;;;5076443;28;20460;-74
2023/08/23 11:43:26;;;;;;;4.60;4.20;;;;;;;;;;5076971;28;20455;-72
2023/08/23 11:45:53;;;;;;;4.43;4.03;;;;;;;;;;5077566;28;20447;-72
2023/08/23 11:48:20;;;;;;;5.30;4.90;;;;;;;;;;5106408;28;20451;-71
2023/08/23 11:50:46;;;;;;;7.70;4.20;;;;;;;;;;5098567;28;20482;-70
2023/08/23 11:53:13;;;;;;;4.00;3.70;;;;;;;;;;5098244;28;20455;-72
2023/08/23 11:55:40;;;;;;;6.10;3.80;;;;;;;;;;5086596;28;20514;-71
2023/08/23 11:58:09;;;;;;;4.70;4.30;;;;;;;;;;5098389;28;20473;-72
2023/08/23 12:00:36;;;;;;;4.53;4.03;;;;;;;;;;5097058;28;20461;-71
2023/08/23 12:03:02;;;;;;;4.13;3.73;;;;;;;;;;5098177;28;20482;-72
2023/08/23 12:05:29;;;;;;;4.87;4.13;;;;;;;;;;5097503;28;20454;-73
2023/08/23 12:07:55;;;;;;;4.93;4.47;;;;;;;;;;5097561;28;20447;-72
2023/08/23 12:10:22;;;;;;;4.13;3.70;;;;;;;;;;5097253;28;20455;-71
2023/08/23 12:12:48;;;;;;;7.03;3.90;;;;;;;;;;5097457;28;20544;-72
2023/08/23 12:15:16;;;;;;;5.20;4.60;;;;;;;;;;5097712;28;20477;-71
2023/08/23 12:17:42;;;;;;;4.60;4.20;;;;;;;;;;5102891;28;20951;-71
2023/08/23 12:20:11;;;;;;;4.63;3.57;;;;;;;;;;5096460;28;20504;-71
2023/08/23 12:22:37;;;;;;;5.03;4.07;;;;;;;;;;5084193;28;20463;-72
2023/08/23 12:25:04;;;;;;;6.60;4.07;;;;;;;;;;5096731;28;20489;-71
2023/08/23 12:27:30;;;;;;;8.33;3.70;;;;;;;;;;5106582;28;20485;-72
2023/08/23 12:29:57;;;;;;;4.10;3.80;;;;;;;;;;5102370;28;20526;-72
2023/08/23 12:32:24;;;;;;;3.87;3.57;;;;;;;;;;5106081;28;20535;-72
2023/08/23 12:34:51;;;;;;;4.30;3.50;;;;;;;;;;5099526;28;20540;-71
2023/08/23 12:37:18;;;;;;;4.13;3.73;;;;;;;;;;5101296;28;20549;-72
2023/08/23 12:39:44;;;;;;;4.37;3.97;;;;;;;;;;5105550;28;20463;-72
2023/08/23 12:42:10;;;;;;;5.53;3.73;;;;;;;;;;5101345;28;20486;-71
2023/08/23 12:44:37;;;;;;;4.90;3.50;;;;;;;;;;5101516;28;20461;-71
2023/08/23 12:47:03;;;;;;;4.13;3.70;;;;;;;;;;5100736;28;20451;-71
2023/08/23 12:49:32;;;;;;;3.53;3.20;;;;;;;;;;5100022;28;21007;-71
2023/08/23 12:51:58;;;;;;;4.30;3.90;;;;;;;;;;5100750;28;20458;-71
2023/08/23 12:54:26;;;;;;;4.87;4.37;;;;;;;;;;5101229;28;20506;-71
2023/08/23 12:56:52;;;;;;;3.60;3.27;;;;;;;;;;5100796;28;20447;-73
2023/08/23 12:59:19;;;;;;;3.70;3.40;;;;;;;;;;5100547;28;20649;-70
2023/08/23 13:01:45;;;;;;;4.23;3.30;;;;;;;;;;5104452;28;20450;-72
2023/08/23 13:04:12;;;;;;;4.30;3.90;;;;;;;;;;5101525;28;20451;-72
2023/08/23 13:06:40;;;;;;;3.77;3.33;;;;;;;;;;5103795;28;20461;-72
2023/08/23 13:09:06;;;;;;;3.60;3.00;;;;;;;;;;5098343;28;21054;-72
2023/08/23 13:11:32;;;;;;;4.07;3.77;;;;;;;;;;5099932;28;20566;-72
2023/08/23 13:13:59;;;;;;;4.10;3.70;;;;;;;;;;5099485;28;20621;-72
2023/08/23 13:16:25;;;;;;;4.20;3.30;;;;;;;;;;5099895;28;20447;-72
2023/08/23 13:18:52;;;;;;;5.73;3.40;;;;;;;;;;5102432;28;20486;-72
2023/08/23 13:21:18;;;;;;;3.93;3.20;;;;;;;;;;5100304;28;20445;-72
2023/08/23 13:23:45;;;;;;;3.77;3.37;;;;;;;;;;5101306;28;21160;-72
2023/08/23 13:26:12;;;;;;;4.20;3.30;;;;;;;;;;5100483;28;20480;-72
2023/08/23 13:28:38;;;;;;;6.13;3.20;;;;;;;;;;5102485;28;20522;-72
2023/08/23 13:31:04;;;;;;;3.37;3.07;;;;;;;;;;5103257;28;20450;-72
2023/08/23 13:33:31;;;;;;;3.40;3.20;;;;;;;;;;5100503;28;20469;-72
2023/08/23 13:35:57;;;;;;;3.80;3.40;;;;;;;;;;5100057;28;20493;-73
2023/08/23 13:38:24;;;;;;;3.60;3.30;;;;;;;;;;5099277;28;20516;-73
2023/08/23 13:40:51;;;;;;;3.60;3.30;;;;;;;;;;5099150;28;20877;-70
2023/08/23 13:43:18;;;;;;;3.80;2.90;;;;;;;;;;5094950;28;20482;-71
2023/08/23 13:45:44;;;;;;;3.30;3.10;;;;;;;;;;5099587;28;20568;-72
2023/08/23 13:48:11;;;;;;;3.47;3.00;;;;;;;;;;5095840;28;20470;-74
2023/08/23 13:50:37;;;;;;;3.40;3.03;;;;;;;;;;5104371;28;20853;-71
2023/08/23 13:53:04;;;;;;;4.60;3.20;;;;;;;;;;5104963;28;20511;-70
2023/08/23 13:55:30;;;;;;;3.70;3.33;;;;;;;;;;5103191;28;20566;-70
2023/08/23 13:57:58;;;;;;;5.90;3.63;;;;;;;;;;5101296;28;20891;-70
2023/08/23 14:00:24;;;;;;;3.93;3.63;;;;;;;;;;5096761;28;20621;-70
2023/08/23 14:02:51;;;;;;;3.60;3.40;;;;;;;;;;5100293;28;20569;-69
2023/08/23 14:05:18;;;;;;;4.00;3.40;;;;;;;;;;5099035;28;20535;-71
2023/08/23 14:07:44;;;;;;;3.30;3.00;;;;;;;;;;5098476;28;20463;-67
2023/08/23 14:10:11;;;;;;;3.80;3.00;;;;;;;;;;5100509;28;20450;-69
2023/08/23 14:12:37;;;;;;;3.47;3.13;;;;;;;;;;5098527;28;20451;-70
2023/08/23 14:15:05;;;;;;;4.00;2.90;;;;;;;;;;5096636;28;20972;-70
2023/08/23 14:17:32;;;;;;;5.30;3.10;;;;;;;;;;5098136;28;20490;-70
2023/08/23 14:19:58;;;;;;;3.60;3.17;;;;;;;;;;5098723;28;20467;-72
2023/08/23 14:22:25;;;;;;;4.37;3.20;;;;;;;;;;5097842;28;20489;-72
2023/08/23 14:24:51;;;;;;;4.10;3.70;;;;;;;;;;5099036;28;20530;-69
2023/08/23 14:27:17;;;;;;;3.53;3.23;;;;;;;;;;5099324;28;20467;-71
2023/08/23 14:29:44;;;;;;;3.60;3.30;;;;;;;;;;5109967;28;20481;-69
2023/08/23 14:32:12;;;;;;;4.10;3.63;;;;;;;;;;5101140;28;20458;-70
2023/08/23 14:34:38;;;;;;;3.10;2.73;;;;;;;;;;5098357;28;20486;-71
2023/08/23 14:37:05;;;;;;;3.37;3.10;;;;;;;;;;5097881;28;20462;-70